createdAt,value
2022-09-07T00:00:49.811Z,97569.78
2022-09-07T00:03:17.476Z,97569.66
2022-09-07T00:05:46.517Z,97561.13
2022-09-07T00:08:14.559Z,97575.03
2022-09-07T00:10:41.409Z,97570.97
2022-09-07T00:13:08.912Z,97566.63
2022-09-07T00:15:40.369Z,97568.44
2022-09-07T00:18:07.279Z,97568.81
2022-09-07T00:20:34.207Z,97565.47
2022-09-07T00:23:00.865Z,97571.00
2022-09-07T00:25:29.800Z,97571.47
2022-09-07T00:27:59.357Z,97569.91
2022-09-07T00:30:27.203Z,97565.69
2022-09-07T00:32:54.059Z,97571.13
2022-09-07T00:35:20.798Z,97565.00
2022-09-07T00:37:47.489Z,97568.22
2022-09-07T00:40:14.408Z,97567.53
2022-09-07T00:42:41.147Z,97569.56
2022-09-07T00:45:25.794Z,97573.66
2022-09-07T00:47:52.404Z,97565.88
2022-09-07T00:50:30.026Z,97564.31
2022-09-07T00:53:07.189Z,97565.50
2022-09-07T00:55:37.349Z,97567.81
2022-09-07T00:58:05.211Z,97563.97
2022-09-07T01:00:31.975Z,97560.13
2022-09-07T01:03:00.390Z,97559.78
2022-09-07T01:05:35.599Z,97568.66
2022-09-07T01:08:03.521Z,97567.09
2022-09-07T01:10:31.842Z,97563.25
2022-09-07T01:12:59.978Z,97570.81
2022-09-07T01:16:13.869Z,97568.19
2022-09-07T01:19:12.575Z,97570.94
2022-09-07T01:22:23.924Z,97563.63
2022-09-07T01:25:10.958Z,97547.94
2022-09-07T01:28:00.914Z,97563.63
2022-09-07T01:30:29.674Z,97560.00
2022-09-07T01:33:38.349Z,97551.50
2022-09-07T01:36:53.442Z,97554.59
2022-09-07T01:39:26.111Z,97556.78
2022-09-07T01:41:58.757Z,97560.25
2022-09-07T01:44:41.937Z,97561.22
2022-09-07T01:47:15.656Z,97564.81
2022-09-07T01:49:59.733Z,97560.13
2022-09-07T01:52:46.514Z,97564.34
2022-09-07T01:55:16.829Z,97561.59
2022-09-07T01:57:49.371Z,97557.50
2022-09-07T02:00:19.094Z,97554.38
2022-09-07T02:03:07.653Z,97548.03
2022-09-07T02:05:44.942Z,97543.09
2022-09-07T02:08:29.567Z,97544.44
2022-09-07T02:11:02.318Z,97548.50
2022-09-07T02:13:38.149Z,97542.63
2022-09-07T02:16:11.154Z,97536.94
2022-09-07T02:18:43.567Z,97529.44
2022-09-07T02:21:10.589Z,97523.91
2022-09-07T02:23:43.585Z,97518.41
2022-09-07T02:26:21.033Z,97523.78
2022-09-07T02:28:49.002Z,97515.38
2022-09-07T02:31:16.063Z,97522.13
2022-09-07T02:33:43.239Z,97519.94
2022-09-07T02:36:12.431Z,97522.69
2022-09-07T02:38:39.057Z,97524.88
2022-09-07T02:41:06.726Z,97526.78
2022-09-07T02:43:33.560Z,97523.88
2022-09-07T02:46:33.108Z,97523.63
2022-09-07T02:49:33.409Z,97524.00
2022-09-07T02:52:36.563Z,97522.06
2022-09-07T02:55:44.646Z,97525.69
2022-09-07T02:59:05.170Z,97520.41
2022-09-07T03:02:02.229Z,97527.00
2022-09-07T03:04:55.645Z,97522.94
2022-09-07T03:07:35.854Z,97515.38
2022-09-07T03:10:06.111Z,97511.78
2022-09-07T03:12:47.438Z,97510.34
2022-09-07T03:15:17.786Z,97521.50
2022-09-07T03:17:45.457Z,97510.72
2022-09-07T03:20:12.423Z,97520.28
2022-09-07T03:22:39.521Z,97523.16
2022-09-07T03:25:07.128Z,97525.44
2022-09-07T03:27:33.996Z,97531.66
2022-09-07T03:30:01.108Z,97538.13
2022-09-07T03:32:35.903Z,97535.25
2022-09-07T03:35:03.629Z,97541.84
2022-09-07T03:37:30.282Z,97540.63
2022-09-07T03:39:57.312Z,97546.13
2022-09-07T03:42:24.206Z,97554.66
2022-09-07T03:44:50.838Z,97559.69
2022-09-07T03:47:17.932Z,97553.47
2022-09-07T03:49:44.897Z,97561.72
2022-09-07T03:52:12.150Z,97561.97
2022-09-07T03:54:39.767Z,97574.09
2022-09-07T03:57:07.036Z,97571.81
2022-09-07T03:59:34.285Z,97578.03
2022-09-07T04:02:01.634Z,97579.00
2022-09-07T04:04:29.142Z,97579.59
2022-09-07T04:06:55.898Z,97572.78
2022-09-07T04:09:22.730Z,97578.75
2022-09-07T04:11:49.474Z,97577.91
2022-09-07T04:14:16.321Z,97573.94
2022-09-07T04:16:44.816Z,97575.59
2022-09-07T04:19:11.708Z,97570.53
2022-09-07T04:21:39.005Z,97577.63
2022-09-07T04:24:05.938Z,97577.06
2022-09-07T04:26:35.652Z,97577.50
2022-09-07T04:29:02.928Z,97576.91
2022-09-07T04:31:30.547Z,97581.69
2022-09-07T04:33:57.334Z,97585.78
2022-09-07T04:36:24.943Z,97579.41
2022-09-07T04:38:56.854Z,97581.81
2022-09-07T04:41:24.334Z,97582.28
2022-09-07T04:43:54.558Z,97583.03
2022-09-07T04:46:35.579Z,97586.03
2022-09-07T04:49:08.459Z,97578.97
2022-09-07T04:51:36.088Z,97583.88
2022-09-07T04:54:03.924Z,97586.78
2022-09-07T04:56:31.701Z,97582.47
2022-09-07T04:58:59.419Z,97592.19
2022-09-07T05:01:26.333Z,97597.09
2022-09-07T05:03:53.540Z,97589.22
2022-09-07T05:06:21.962Z,97595.72
2022-09-07T05:08:50.959Z,97598.72
2022-09-07T05:11:19.086Z,97602.56
2022-09-07T05:13:45.862Z,97610.59
2022-09-07T05:16:21.279Z,97603.19
2022-09-07T05:18:55.908Z,97615.78
2022-09-07T05:21:25.834Z,97615.41
2022-09-07T05:23:54.577Z,97616.25
2022-09-07T05:26:23.993Z,97622.63
2022-09-07T05:28:50.768Z,97630.19
2022-09-07T05:31:22.539Z,97626.66
2022-09-07T05:36:42.341Z,97633.66
2022-09-07T05:39:09.893Z,97626.31
2022-09-07T05:41:36.740Z,97628.38
2022-09-07T05:46:52.450Z,97628.38
2022-09-07T05:49:19.158Z,97639.41
2022-09-07T05:51:46.061Z,97638.34
2022-09-07T05:54:12.929Z,97649.72
2022-09-07T05:56:39.776Z,97646.59
2022-09-07T05:59:06.491Z,97646.72
2022-09-07T06:01:35.345Z,97649.81
2022-09-07T06:04:02.553Z,97646.56
2022-09-07T06:06:29.231Z,97649.84
2022-09-07T06:08:57.751Z,97645.75
2022-09-07T06:11:26.252Z,97645.84
2022-09-07T06:13:53.065Z,97646.81
2022-09-07T06:16:20.235Z,97643.56
2022-09-07T06:18:49.526Z,97652.19
2022-09-07T06:21:19.430Z,97656.88
2022-09-07T06:23:47.427Z,97662.06
2022-09-07T06:26:15.284Z,97660.72
2022-09-07T06:28:49.701Z,97656.53
2022-09-07T06:31:20.381Z,97651.50
2022-09-07T06:33:49.050Z,97652.81
2022-09-07T06:36:21.276Z,97653.97
2022-09-07T06:38:49.342Z,97657.25
2022-09-07T06:44:07.688Z,97647.16
2022-09-07T06:49:21.415Z,97652.22
2022-09-07T06:51:48.058Z,97645.63
2022-09-07T06:57:08.539Z,97644.63
2022-09-07T06:59:35.728Z,97641.16
2022-09-07T07:02:02.602Z,97643.91
2022-09-07T07:04:29.624Z,97645.34
2022-09-07T07:06:56.280Z,97638.88
2022-09-07T07:09:22.963Z,97644.34
2022-09-07T07:11:49.851Z,97641.88
2022-09-07T07:14:17.455Z,97647.09
2022-09-07T07:16:44.523Z,97641.97
2022-09-07T07:19:11.316Z,97650.50
2022-09-07T07:22:03.623Z,97641.69
2022-09-07T07:24:24.902Z,97640.66
2022-09-07T07:26:51.826Z,97647.53
2022-09-07T07:29:19.024Z,97646.94
2022-09-07T07:31:47.162Z,97661.59
2022-09-07T07:34:15.217Z,97663.03
2022-09-07T07:36:42.352Z,97663.56
2022-09-07T07:41:58.907Z,97662.75
2022-09-07T07:44:28.421Z,97669.22
2022-09-07T07:46:55.347Z,97668.16
2022-09-07T07:49:22.168Z,97674.59
2022-09-07T07:54:38.384Z,97677.50
2022-09-07T07:57:06.106Z,97679.63
2022-09-07T07:59:33.219Z,97680.94
2022-09-07T08:02:04.580Z,97678.94
2022-09-07T08:04:35.168Z,97677.63
2022-09-07T08:07:09.210Z,97679.88
2022-09-07T08:09:37.317Z,97678.56
2022-09-07T08:12:04.106Z,97680.63
2022-09-07T08:14:30.890Z,97681.72
2022-09-07T08:16:57.623Z,97682.75
2022-09-07T08:19:24.207Z,97690.56
2022-09-07T08:21:51.105Z,97689.00
2022-09-07T08:24:17.687Z,97687.75
2022-09-07T08:26:44.278Z,97691.81
2022-09-07T08:29:10.829Z,97689.03
2022-09-07T08:31:38.251Z,97689.75
2022-09-07T08:34:05.178Z,97676.81
2022-09-07T08:36:31.994Z,97683.28
2022-09-07T08:38:58.723Z,97684.50
2022-09-07T08:41:46.474Z,97680.59
2022-09-07T08:44:45.482Z,97679.88
2022-09-07T08:47:29.652Z,97672.25
2022-09-07T08:50:02.846Z,97678.28
2022-09-07T08:52:47.690Z,97677.72
2022-09-07T08:55:37.585Z,97681.88
2022-09-07T08:58:27.038Z,97685.94
2022-09-07T09:04:19.151Z,97679.56
2022-09-07T09:07:06.462Z,97683.06
2022-09-07T09:09:46.991Z,97685.75
2022-09-07T09:12:38.001Z,97674.31
2022-09-07T09:15:58.218Z,97665.28
2022-09-07T09:18:57.657Z,97660.09
2022-09-07T09:21:24.785Z,97667.25
2022-09-07T09:23:54.718Z,97664.31
2022-09-07T09:26:32.404Z,97669.03
2022-09-07T09:29:12.598Z,97663.69
2022-09-07T09:31:39.302Z,97664.59
2022-09-07T09:34:14.737Z,97661.34
2022-09-07T09:36:56.423Z,97658.88
2022-09-07T09:39:37.206Z,97660.72
2022-09-07T09:42:30.155Z,97661.16
2022-09-07T09:45:12.097Z,97659.47
2022-09-07T09:47:39.316Z,97650.50
2022-09-07T09:52:28.972Z,97651.75
2022-09-07T09:53:05.330Z,97652.63
2022-09-07T09:55:36.156Z,97653.88
2022-09-07T10:01:31.008Z,97645.44
2022-09-07T10:04:00.481Z,97641.88
2022-09-07T10:06:28.307Z,97637.16
2022-09-07T10:09:01.922Z,97637.81
2022-09-07T10:12:05.564Z,97648.81
2022-09-07T10:14:53.387Z,97639.38
2022-09-07T10:17:30.232Z,97634.66
2022-09-07T10:20:02.104Z,97617.94
2022-09-07T10:22:35.720Z,97621.13
2022-09-07T10:25:04.751Z,97621.59
2022-09-07T10:27:35.982Z,97617.53
2022-09-07T10:30:12.444Z,97620.25
2022-09-07T10:33:10.294Z,97611.69
2022-09-07T10:35:50.672Z,97622.19
2022-09-07T10:38:25.102Z,97620.19
2022-09-07T10:41:04.239Z,97616.25
2022-09-07T10:43:44.087Z,97615.16
2022-09-07T10:52:49.355Z,97608.47
2022-09-07T10:55:32.605Z,97598.91
2022-09-07T11:01:58.458Z,97596.97
2022-09-07T11:04:36.781Z,97593.16
2022-09-07T11:08:08.084Z,97590.44
2022-09-07T11:11:07.721Z,97587.13
2022-09-07T11:13:55.715Z,97578.34
2022-09-07T11:19:38.188Z,97574.75
2022-09-07T11:22:38.320Z,97576.19
2022-09-07T11:25:31.601Z,97564.09
2022-09-07T11:28:14.332Z,97566.06
2022-09-07T11:30:46.359Z,97569.25
2022-09-07T11:33:24.325Z,97562.13
2022-09-07T11:35:58.629Z,97559.56
2022-09-07T11:38:35.412Z,97565.75
2022-09-07T11:41:26.989Z,97558.31
2022-09-07T11:44:35.304Z,97554.88
2022-09-07T11:47:11.958Z,97561.81
2022-09-07T11:49:38.514Z,97551.00
2022-09-07T11:52:11.007Z,97548.91
2022-09-07T11:54:57.926Z,97543.34
2022-09-07T11:58:22.645Z,97542.28
2022-09-07T12:01:59.718Z,97541.22
2022-09-07T12:05:03.597Z,97535.19
2022-09-07T12:08:08.141Z,97526.38
2022-09-07T12:10:49.583Z,97515.44
2022-09-07T12:14:10.219Z,97518.56
2022-09-07T12:17:19.458Z,97532.66
2022-09-07T12:19:46.406Z,97528.16
2022-09-07T12:22:21.145Z,97523.84
2022-09-07T12:24:53.227Z,97527.19
2022-09-07T12:27:40.814Z,97528.72
2022-09-07T12:30:41.107Z,97528.06
2022-09-07T12:33:26.214Z,97521.16
2022-09-07T12:35:55.084Z,97521.38
2022-09-07T12:39:02.559Z,97515.28
2022-09-07T12:44:40.823Z,97513.72
2022-09-07T12:47:30.070Z,97514.59
2022-09-07T12:50:19.572Z,97517.47
2022-09-07T12:52:49.652Z,97512.09
2022-09-07T12:56:15.597Z,97512.63
2022-09-07T12:58:32.867Z,97502.22
2022-09-07T13:01:28.518Z,97504.88
2022-09-07T13:04:52.794Z,97506.22
2022-09-07T13:08:10.365Z,97494.16
2022-09-07T13:10:40.902Z,97491.81
2022-09-07T13:20:10.890Z,97493.13
2022-09-07T13:23:08.525Z,97494.97
2022-09-07T13:25:55.050Z,97491.25
2022-09-07T13:28:55.675Z,97484.25
2022-09-07T13:31:48.278Z,97484.31
2022-09-07T13:35:06.058Z,97477.25
2022-09-07T13:37:57.741Z,97477.34
2022-09-07T13:40:28.067Z,97474.63
2022-09-07T13:42:56.914Z,97476.66
2022-09-07T13:45:50.798Z,97470.41
2022-09-07T13:48:26.601Z,97470.56
2022-09-07T13:51:39.444Z,97470.03
2022-09-07T13:54:29.417Z,97458.66
2022-09-07T13:57:30.817Z,97450.56
2022-09-07T13:59:58.004Z,97458.25
2022-09-07T14:02:28.479Z,97446.31
2022-09-07T14:04:57.692Z,97441.88
2022-09-07T14:07:27.942Z,97440.31
2022-09-07T14:10:21.485Z,97433.81
2022-09-07T14:13:12.358Z,97432.38
2022-09-07T14:15:42.595Z,97429.78
2022-09-07T14:18:14.695Z,97422.16
2022-09-07T14:20:45.434Z,97416.53
2022-09-07T14:23:32.620Z,97415.03
2022-09-07T14:26:32.066Z,97415.09
2022-09-07T14:28:58.997Z,97409.66
2022-09-07T14:31:26.368Z,97408.41
2022-09-07T14:33:58.641Z,97403.03
2022-09-07T14:36:44.683Z,97403.06
2022-09-07T14:39:14.142Z,97404.38
2022-09-07T14:41:42.134Z,97404.94
2022-09-07T14:44:27.888Z,97399.72
2022-09-07T14:46:57.062Z,97399.53
2022-09-07T14:49:25.156Z,97400.81
2022-09-07T14:51:54.239Z,97401.34
2022-09-07T14:54:27.463Z,97405.38
2022-09-07T14:57:26.817Z,97405.81
2022-09-07T14:59:53.843Z,97407.09
2022-09-07T15:02:33.077Z,97405.63
2022-09-07T15:05:14.843Z,97409.03
2022-09-07T15:07:46.582Z,97408.94
2022-09-07T15:10:28.398Z,97410.94
2022-09-07T15:12:57.866Z,97408.03
2022-09-07T15:15:30.651Z,97411.91
2022-09-07T15:18:04.612Z,97418.09
2022-09-07T15:20:43.073Z,97422.19
2022-09-07T15:23:18.073Z,97415.88
2022-09-07T15:25:50.895Z,97418.59
2022-09-07T15:34:10.514Z,97408.25
2022-09-07T15:36:40.560Z,97408.91
2022-09-07T15:39:14.294Z,97401.16
2022-09-07T15:41:40.850Z,97401.00
2022-09-07T15:44:09.081Z,97398.81
2022-09-07T15:46:37.105Z,97402.81
2022-09-07T15:49:04.238Z,97390.16
2022-09-07T15:54:17.745Z,97385.63
2022-09-07T15:57:48.309Z,97385.47
2022-09-07T15:59:31.361Z,97381.69
2022-09-07T16:01:58.603Z,97370.41
2022-09-07T16:04:25.647Z,97368.13
2022-09-07T16:06:52.371Z,97375.69
2022-09-07T16:09:21.794Z,97367.13
2022-09-07T16:11:50.184Z,97369.81
2022-09-07T16:14:17.793Z,97369.03
2022-09-07T16:19:34.952Z,97368.94
2022-09-07T16:22:03.129Z,97363.25
2022-09-07T16:24:29.847Z,97366.66
2022-09-07T16:26:56.828Z,97353.28
2022-09-07T16:29:23.428Z,97360.16
2022-09-07T16:34:36.802Z,97350.28
2022-09-07T16:37:03.646Z,97338.25
2022-09-07T16:39:30.372Z,97335.44
2022-09-07T16:41:57.414Z,97333.16
2022-09-07T16:44:24.012Z,97333.88
2022-09-07T16:46:50.773Z,97335.94
2022-09-07T16:49:18.055Z,97338.69
2022-09-07T16:51:45.774Z,97332.34
2022-09-07T16:54:13.688Z,97327.47
2022-09-07T16:56:40.342Z,97333.72
2022-09-07T16:59:09.546Z,97327.38
2022-09-07T17:01:38.106Z,97327.25
2022-09-07T17:04:09.796Z,97329.25
2022-09-07T17:06:37.773Z,97325.84
2022-09-07T17:09:04.610Z,97317.41
2022-09-07T17:11:33.679Z,97324.28
2022-09-07T17:14:01.245Z,97335.31
2022-09-07T17:16:33.868Z,97336.59
2022-09-07T17:21:53.802Z,97322.31
2022-09-07T17:24:21.346Z,97326.34
2022-09-07T17:26:47.925Z,97326.16
2022-09-07T17:29:14.973Z,97323.25
2022-09-07T17:34:29.875Z,97315.31
2022-09-07T17:36:56.582Z,97317.22
2022-09-07T17:39:23.423Z,97321.94
2022-09-07T17:41:54.418Z,97321.19
2022-09-07T17:44:23.410Z,97315.47
2022-09-07T17:46:50.564Z,97320.25
2022-09-07T17:49:17.785Z,97320.78
2022-09-07T17:51:45.651Z,97329.69
2022-09-07T17:54:15.739Z,97331.66
2022-09-07T17:56:42.974Z,97333.66
2022-09-07T18:01:57.198Z,97335.53
2022-09-07T18:04:24.473Z,97325.03
2022-09-07T18:06:51.478Z,97331.97
2022-09-07T18:09:19.628Z,97332.47
2022-09-07T18:11:48.208Z,97332.34
2022-09-07T18:14:16.633Z,97330.84
2022-09-07T18:16:45.095Z,97332.22
2022-09-07T18:19:12.614Z,97334.19
2022-09-07T18:21:42.099Z,97336.97
2022-09-07T18:24:16.678Z,97333.50
2022-09-07T18:26:44.730Z,97334.84
2022-09-07T18:29:28.203Z,97329.22
2022-09-07T18:31:56.939Z,97329.22
2022-09-07T18:34:23.738Z,97329.06
2022-09-07T18:36:50.634Z,97319.19
2022-09-07T18:39:17.337Z,97323.16
2022-09-07T18:41:43.997Z,97314.06
2022-09-07T18:46:57.378Z,97315.94
2022-09-07T18:49:25.044Z,97315.88
2022-09-07T18:54:38.978Z,97314.34
2022-09-07T18:57:06.703Z,97307.28
2022-09-07T18:59:33.464Z,97307.78
2022-09-07T19:02:03.971Z,97313.31
2022-09-07T19:07:20.460Z,97304.72
2022-09-07T19:09:48.558Z,97308.69
2022-09-07T19:14:57.021Z,97293.75
2022-09-07T19:17:24.707Z,97299.78
2022-09-07T19:19:52.746Z,97301.00
2022-09-07T19:22:19.356Z,97298.78
2022-09-07T19:24:45.882Z,97289.66
2022-09-07T19:27:12.501Z,97287.38
2022-09-07T19:29:39.297Z,97287.22
2022-09-07T19:32:06.958Z,97292.63
2022-09-07T19:34:38.932Z,97289.72
2022-09-07T19:37:06.962Z,97298.59
2022-09-07T19:39:34.007Z,97299.16
2022-09-07T19:42:02.220Z,97297.63
2022-09-07T19:44:28.808Z,97297.47
2022-09-07T19:46:55.589Z,97292.50
2022-09-07T19:49:23.316Z,97290.28
2022-09-07T19:51:51.841Z,97286.22
2022-09-07T19:54:18.854Z,97290.34
2022-09-07T19:56:45.635Z,97295.03
2022-09-07T19:59:13.206Z,97293.53
2022-09-07T20:01:40.639Z,97294.81
2022-09-07T20:04:10.604Z,97294.72
2022-09-07T20:06:39.439Z,97290.44
2022-09-07T20:09:08.141Z,97295.84
2022-09-07T20:11:36.000Z,97291.56
2022-09-07T20:14:03.074Z,97288.72
2022-09-07T20:16:31.079Z,97282.28
2022-09-07T20:18:58.862Z,97275.94
2022-09-07T20:21:26.470Z,97279.44
2022-09-07T20:23:53.078Z,97275.81
2022-09-07T20:26:21.138Z,97277.78
2022-09-07T20:29:05.887Z,97267.88
2022-09-07T20:31:40.460Z,97268.44
2022-09-07T20:34:07.166Z,97272.94
2022-09-07T20:36:33.703Z,97267.94
2022-09-07T20:39:00.795Z,97266.34
2022-09-07T20:41:31.274Z,97256.44
2022-09-07T20:43:59.996Z,97258.97
2022-09-07T20:46:28.414Z,97259.41
2022-09-07T20:48:56.224Z,97260.66
2022-09-07T20:51:23.010Z,97259.81
2022-09-07T20:53:50.045Z,97261.06
2022-09-07T20:56:22.401Z,97248.00
2022-09-07T20:58:49.557Z,97241.03
2022-09-07T21:01:18.147Z,97236.81
2022-09-07T21:03:49.306Z,97238.06
2022-09-07T21:06:17.085Z,97236.66
2022-09-07T21:08:45.371Z,97231.59
2022-09-07T21:11:15.254Z,97245.91
2022-09-07T21:13:41.997Z,97238.94
2022-09-07T21:16:10.894Z,97236.25
2022-09-07T21:18:37.922Z,97227.22
2022-09-07T21:21:21.399Z,97227.91
2022-09-07T21:23:48.232Z,97235.63
2022-09-07T21:26:19.609Z,97236.88
2022-09-07T21:28:46.194Z,97230.47
2022-09-07T21:31:12.853Z,97228.31
2022-09-07T21:33:39.413Z,97227.53
2022-09-07T21:36:08.698Z,97230.09
2022-09-07T21:38:37.248Z,97230.09
2022-09-07T21:41:16.324Z,97225.03
2022-09-07T21:43:42.894Z,97221.47
2022-09-07T21:46:18.201Z,97218.53
2022-09-07T21:48:45.873Z,97217.72
2022-09-07T21:51:13.994Z,97218.38
2022-09-07T21:53:41.563Z,97217.66
2022-09-07T21:56:11.184Z,97206.56
2022-09-07T21:58:38.522Z,97196.75
2022-09-07T22:01:17.201Z,97194.53
2022-09-07T22:03:48.450Z,97193.00
2022-09-07T22:06:15.271Z,97195.50
2022-09-07T22:08:42.579Z,97187.03
2022-09-07T22:11:11.668Z,97184.19
2022-09-07T22:13:39.106Z,97184.09
2022-09-07T22:16:06.949Z,97180.44
2022-09-07T22:18:36.829Z,97179.53
2022-09-07T22:21:07.754Z,97184.91
2022-09-07T22:23:36.862Z,97172.31
2022-09-07T22:26:04.116Z,97176.34
2022-09-07T22:28:31.319Z,97163.91
2022-09-07T22:31:15.121Z,97156.97
2022-09-07T22:33:42.892Z,97158.91
2022-09-07T22:36:23.518Z,97157.22
2022-09-07T22:38:53.158Z,97155.00
2022-09-07T22:41:22.711Z,97149.47
2022-09-07T22:43:50.998Z,97138.94
2022-09-07T22:46:19.745Z,97140.09
2022-09-07T22:48:46.426Z,97139.28
2022-09-07T22:51:13.157Z,97144.75
2022-09-07T22:53:41.490Z,97139.03
2022-09-07T22:56:18.602Z,97128.69
2022-09-07T22:58:46.837Z,97122.34
2022-09-07T23:01:14.049Z,97120.81
2022-09-07T23:03:40.698Z,97114.59
2022-09-07T23:06:07.467Z,97113.78
2022-09-07T23:08:34.018Z,97110.94
2022-09-07T23:11:05.156Z,97105.13
2022-09-07T23:13:33.613Z,97099.50
2022-09-07T23:16:06.602Z,97098.72
2022-09-07T23:18:33.580Z,97088.34
2022-09-07T23:21:01.066Z,97097.91
2022-09-07T23:23:28.683Z,97096.38
2022-09-07T23:25:55.568Z,97104.31
2022-09-07T23:28:22.228Z,97097.16
2022-09-07T23:30:50.162Z,97090.94
2022-09-07T23:33:17.209Z,97087.19
2022-09-07T23:35:43.846Z,97072.44
2022-09-07T23:38:10.437Z,97075.84
2022-09-07T23:40:36.981Z,97067.44
2022-09-07T23:43:03.565Z,97065.38
2022-09-07T23:45:30.089Z,97062.00
2022-09-07T23:47:56.701Z,97056.38
2022-09-07T23:50:23.341Z,97052.09
2022-09-07T23:52:49.900Z,97046.31
2022-09-07T23:55:16.768Z,97052.91
2022-09-07T23:57:43.333Z,97047.09
